createdAt,value
2022-10-15T00:01:53.865Z,70.32
2022-10-15T00:04:25.472Z,71.15
2022-10-15T00:06:53.731Z,71.85
2022-10-15T00:09:23.064Z,77.65
2022-10-15T00:11:52.096Z,80.72
2022-10-15T00:14:24.623Z,79.88
2022-10-15T00:16:53.106Z,82.65
2022-10-15T00:19:21.401Z,74.43
2022-10-15T00:21:51.393Z,73.50
2022-10-15T00:24:19.827Z,74.25
2022-10-15T00:26:48.254Z,70.35
2022-10-15T00:29:16.492Z,78.68
2022-10-15T00:31:44.911Z,90.18
2022-10-15T00:34:13.225Z,92.80
2022-10-15T00:36:41.673Z,98.68
2022-10-15T00:39:12.991Z,110.03
2022-10-15T00:41:44.519Z,104.30
2022-10-15T00:44:46.119Z,87.35
2022-10-15T00:47:18.433Z,92.75
2022-10-15T00:49:55.103Z,84.50
2022-10-15T00:52:28.175Z,76.43
2022-10-15T00:55:02.325Z,72.88
2022-10-15T00:57:33.730Z,70.10
2022-10-15T01:00:07.856Z,65.72
2022-10-15T01:02:38.669Z,67.13
2022-10-15T01:05:08.582Z,71.82
2022-10-15T01:07:37.294Z,68.07
2022-10-15T01:10:08.952Z,72.50
2022-10-15T01:12:56.997Z,76.65
2022-10-15T01:15:31.107Z,78.18
2022-10-15T01:18:08.467Z,94.07
2022-10-15T01:21:01.629Z,82.88
2022-10-15T01:24:15.234Z,82.70
2022-10-15T01:27:22.129Z,78.55
2022-10-15T01:30:23.419Z,90.50
2022-10-15T01:33:07.782Z,87.75
2022-10-15T01:35:48.052Z,83.13
2022-10-15T01:38:25.967Z,89.18
2022-10-15T01:40:59.047Z,106.25
2022-10-15T01:43:34.628Z,112.22
2022-10-15T01:46:12.015Z,128.95
2022-10-15T01:48:42.918Z,122.70
2022-10-15T01:51:14.021Z,132.32
2022-10-15T01:53:44.854Z,130.68
2022-10-15T01:56:17.066Z,132.65
2022-10-15T01:58:48.137Z,126.80
2022-10-15T02:01:17.176Z,114.60
2022-10-15T02:03:49.860Z,123.63
2022-10-15T02:06:24.702Z,128.40
2022-10-15T02:09:11.912Z,138.02
2022-10-15T02:11:50.883Z,136.13
2022-10-15T02:14:26.180Z,133.52
2022-10-15T02:17:03.443Z,137.48
2022-10-15T02:19:40.039Z,137.15
2022-10-15T02:22:12.331Z,124.88
2022-10-15T02:24:45.527Z,125.53
2022-10-15T02:27:15.718Z,128.77
2022-10-15T02:29:46.935Z,126.53
2022-10-15T02:32:18.077Z,133.57
2022-10-15T02:34:48.551Z,124.18
2022-10-15T02:37:21.125Z,135.05
2022-10-15T02:39:52.953Z,139.07
2022-10-15T02:42:22.656Z,145.55
2022-10-15T02:44:54.315Z,128.65
2022-10-15T02:47:22.712Z,137.57
2022-10-15T02:49:53.483Z,114.45
2022-10-15T02:52:22.221Z,102.35
2022-10-15T02:54:50.929Z,94.60
2022-10-15T02:57:19.625Z,93.55
2022-10-15T02:59:49.555Z,97.20
2022-10-15T03:02:19.385Z,97.88
2022-10-15T03:04:48.002Z,104.50
2022-10-15T03:07:19.471Z,117.40
2022-10-15T03:09:48.456Z,110.63
2022-10-15T03:12:16.744Z,117.72
2022-10-15T03:14:49.259Z,116.97
2022-10-15T03:17:17.932Z,131.60
2022-10-15T03:19:47.330Z,129.13
2022-10-15T03:22:15.530Z,136.35
2022-10-15T03:24:46.833Z,143.85
2022-10-15T03:27:15.119Z,129.80
2022-10-15T03:29:43.629Z,147.13
2022-10-15T03:32:12.142Z,152.35
2022-10-15T03:34:41.528Z,168.20
2022-10-15T03:37:10.603Z,179.10
2022-10-15T03:39:39.315Z,175.48
2022-10-15T03:42:09.223Z,161.88
2022-10-15T03:44:40.165Z,154.13
2022-10-15T03:47:09.860Z,146.82
2022-10-15T03:49:38.515Z,141.65
2022-10-15T03:52:08.459Z,178.77
2022-10-15T03:54:36.767Z,160.77
2022-10-15T03:57:04.997Z,171.00
2022-10-15T03:59:35.873Z,155.73
2022-10-15T04:02:04.235Z,174.02
2022-10-15T04:04:33.506Z,171.00
2022-10-15T04:07:01.529Z,176.75
2022-10-15T04:09:33.364Z,160.18
2022-10-15T04:14:35.392Z,154.57
2022-10-15T04:17:03.778Z,142.50
2022-10-15T04:19:32.118Z,150.32
2022-10-15T04:22:00.891Z,145.63
2022-10-15T04:24:29.130Z,167.05
2022-10-15T04:26:57.571Z,164.52
2022-10-15T04:29:28.552Z,141.75
2022-10-15T04:31:58.399Z,146.38
2022-10-15T04:34:27.072Z,161.68
2022-10-15T04:36:57.074Z,157.20
2022-10-15T04:39:25.611Z,159.05
2022-10-15T04:41:53.760Z,150.80
2022-10-15T04:44:21.868Z,156.63
2022-10-15T04:46:50.252Z,142.70
2022-10-15T04:49:20.572Z,155.60
2022-10-15T04:51:48.641Z,133.73
2022-10-15T04:54:16.971Z,154.23
2022-10-15T04:56:45.322Z,142.98
2022-10-15T04:59:14.045Z,138.27
2022-10-15T05:01:42.459Z,135.52
2022-10-15T05:04:14.045Z,139.43
2022-10-15T05:06:43.589Z,134.20
2022-10-15T05:09:12.794Z,139.20
2022-10-15T05:11:41.806Z,150.27
2022-10-15T05:14:10.202Z,165.85
2022-10-15T05:16:38.737Z,154.32
2022-10-15T05:19:09.851Z,159.77
2022-10-15T05:21:40.588Z,148.98
2022-10-15T05:24:10.575Z,154.00
2022-10-15T05:26:38.675Z,147.00
2022-10-15T05:29:11.227Z,126.78
2022-10-15T05:31:39.754Z,125.20
2022-10-15T05:34:10.045Z,121.05
2022-10-15T05:36:41.561Z,123.60
2022-10-15T05:39:12.336Z,114.97
2022-10-15T05:41:40.562Z,123.78
2022-10-15T05:44:11.714Z,123.85
2022-10-15T05:46:43.189Z,123.82
2022-10-15T05:49:11.573Z,119.53
2022-10-15T05:51:42.465Z,123.28
2022-10-15T05:54:11.872Z,112.13
2022-10-15T05:56:40.287Z,123.93
2022-10-15T05:59:09.829Z,124.05
2022-10-15T06:01:38.065Z,117.60
2022-10-15T06:04:07.459Z,116.15
2022-10-15T06:06:36.021Z,119.90
2022-10-15T06:09:04.376Z,129.20
2022-10-15T06:11:33.956Z,128.70
2022-10-15T06:14:02.286Z,118.68
2022-10-15T06:16:30.300Z,126.13
2022-10-15T06:18:58.790Z,129.95
2022-10-15T06:21:31.882Z,127.32
2022-10-15T06:24:00.386Z,141.00
2022-10-15T06:26:28.972Z,142.60
2022-10-15T06:28:59.848Z,157.55
2022-10-15T06:31:27.934Z,168.85
2022-10-15T06:33:56.280Z,152.02
2022-10-15T06:36:27.304Z,144.70
2022-10-15T06:38:56.544Z,143.93
2022-10-15T06:41:25.099Z,130.82
2022-10-15T06:43:54.771Z,121.75
2022-10-15T06:46:24.314Z,77.47
2022-10-15T06:48:52.656Z,79.72
2022-10-15T06:51:23.889Z,66.30
2022-10-15T06:53:52.958Z,63.80
2022-10-15T06:56:21.342Z,61.33
2022-10-15T06:58:49.509Z,51.78
2022-10-15T07:01:20.550Z,57.60
2022-10-15T07:03:51.996Z,49.27
2022-10-15T07:06:20.514Z,53.40
2022-10-15T07:08:48.710Z,48.17
2022-10-15T07:11:19.490Z,50.28
2022-10-15T07:13:51.925Z,42.67
2022-10-15T07:16:20.347Z,45.03
2022-10-15T07:18:51.642Z,48.05
2022-10-15T07:21:22.414Z,47.22
2022-10-15T07:23:50.955Z,51.95
2022-10-15T07:26:21.946Z,41.25
2022-10-15T07:28:56.942Z,44.67
2022-10-15T07:31:29.090Z,39.67
2022-10-15T07:34:00.334Z,49.53
2022-10-15T07:36:34.168Z,47.80
2022-10-15T07:39:09.840Z,41.42
2022-10-15T07:41:40.608Z,39.60
2022-10-15T07:44:11.811Z,40.17
2022-10-15T07:46:43.505Z,42.83
2022-10-15T07:49:16.694Z,37.83
2022-10-15T07:51:48.356Z,37.80
2022-10-15T07:54:17.477Z,41.25
2022-10-15T07:56:48.311Z,36.40
2022-10-15T07:59:16.402Z,53.47
2022-10-15T08:01:54.308Z,35.60
2022-10-15T08:04:22.660Z,38.10
2022-10-15T08:06:58.458Z,41.78
2022-10-15T08:09:36.445Z,36.42
2022-10-15T08:12:08.759Z,35.45
2022-10-15T08:14:38.576Z,43.50
2022-10-15T08:17:09.635Z,45.00
2022-10-15T08:19:42.061Z,33.28
2022-10-15T08:22:14.907Z,34.60
2022-10-15T08:24:43.107Z,34.08
2022-10-15T08:27:13.145Z,31.48
2022-10-15T08:29:44.832Z,32.03
2022-10-15T08:32:14.508Z,34.08
2022-10-15T08:34:42.519Z,40.63
2022-10-15T08:37:12.060Z,91.82
2022-10-15T08:39:41.798Z,31.10
2022-10-15T08:42:19.710Z,29.75
2022-10-15T08:44:56.323Z,34.78
2022-10-15T08:47:32.340Z,32.33
2022-10-15T08:50:13.487Z,34.30
2022-10-15T08:52:52.727Z,31.92
2022-10-15T08:58:02.134Z,33.58
2022-10-15T09:00:42.258Z,28.75
2022-10-15T09:03:28.934Z,26.83
2022-10-15T09:06:08.436Z,22.83
2022-10-15T09:08:52.404Z,26.17
2022-10-15T09:11:26.084Z,34.92
2022-10-15T09:13:54.793Z,21.98
2022-10-15T09:16:26.674Z,22.67
2022-10-15T09:21:29.009Z,28.85
2022-10-15T09:24:03.754Z,20.83
2022-10-15T09:26:42.222Z,26.17
2022-10-15T09:29:21.700Z,20.67
2022-10-15T09:34:34.888Z,25.58
2022-10-15T09:37:08.640Z,25.80
2022-10-15T09:40:17.266Z,18.80
2022-10-15T09:42:47.757Z,30.42
2022-10-15T09:45:17.759Z,21.55
2022-10-15T09:47:46.908Z,21.35
2022-10-15T09:50:16.107Z,22.02
2022-10-15T09:53:05.412Z,24.55
2022-10-15T09:55:41.871Z,22.98
2022-10-15T09:58:16.217Z,97.80
2022-10-15T10:00:59.677Z,25.60
2022-10-15T10:03:30.635Z,23.10
2022-10-15T10:06:05.042Z,24.77
2022-10-15T10:08:38.102Z,23.27
2022-10-15T10:11:09.629Z,16.83
2022-10-15T10:13:47.075Z,19.27
2022-10-15T10:16:17.927Z,25.05
2022-10-15T10:19:04.865Z,19.43
2022-10-15T10:21:39.225Z,23.23
2022-10-15T10:24:23.738Z,19.73
2022-10-15T10:26:56.844Z,17.05
2022-10-15T10:29:35.744Z,18.98
2022-10-15T10:32:20.854Z,39.92
2022-10-15T10:34:53.126Z,15.65
2022-10-15T10:37:24.471Z,78.72
2022-10-15T10:40:00.445Z,28.95
2022-10-15T10:42:38.615Z,23.38
2022-10-15T10:48:00.642Z,15.15
2022-10-15T10:50:34.698Z,20.55
2022-10-15T10:53:23.236Z,21.08
2022-10-15T10:55:56.407Z,18.75
2022-10-15T10:58:30.242Z,21.35
2022-10-15T11:01:00.768Z,16.30
2022-10-15T11:03:39.733Z,19.42
2022-10-15T11:06:39.322Z,16.73
2022-10-15T11:09:18.985Z,18.08
2022-10-15T11:12:00.171Z,128.43
2022-10-15T11:14:40.878Z,19.17
2022-10-15T11:17:19.310Z,17.92
2022-10-15T11:22:57.297Z,17.17
2022-10-15T11:25:34.589Z,20.95
2022-10-15T11:28:21.039Z,15.82
2022-10-15T11:30:58.131Z,17.02
2022-10-15T11:33:59.215Z,18.52
2022-10-15T11:36:55.985Z,18.45
2022-10-15T11:39:35.867Z,16.80
2022-10-15T11:42:17.379Z,16.23
2022-10-15T11:45:04.458Z,16.40
2022-10-15T11:47:49.944Z,59.70
2022-10-15T11:50:26.716Z,16.30
2022-10-15T11:53:09.607Z,15.63
2022-10-15T11:55:43.466Z,22.58
2022-10-15T11:58:19.248Z,14.70
2022-10-15T12:00:56.102Z,32.15
2022-10-15T12:03:31.544Z,50.90
2022-10-15T12:06:06.356Z,40.97
2022-10-15T12:08:41.345Z,32.80
2022-10-15T12:11:21.277Z,17.20
2022-10-15T12:13:55.309Z,22.45
2022-10-15T12:16:29.605Z,18.63
2022-10-15T12:19:12.091Z,86.15
2022-10-15T12:21:42.610Z,29.10
2022-10-15T12:24:48.781Z,17.50
2022-10-15T12:27:22.998Z,16.17
2022-10-15T12:30:08.715Z,17.13
2022-10-15T12:32:41.072Z,17.98
2022-10-15T12:35:24.563Z,14.98
2022-10-15T12:37:53.838Z,13.48
2022-10-15T12:40:29.340Z,18.58
2022-10-15T12:43:00.058Z,15.32
2022-10-15T12:45:40.204Z,15.68
2022-10-15T12:48:29.710Z,31.30
2022-10-15T12:51:33.937Z,15.18
2022-10-15T12:54:04.997Z,15.32
2022-10-15T12:56:41.979Z,37.28
2022-10-15T12:59:33.813Z,15.35
2022-10-15T13:02:02.267Z,13.80
2022-10-15T13:04:40.787Z,20.98
2022-10-15T13:07:16.397Z,20.05
2022-10-15T13:09:46.618Z,41.17
2022-10-15T13:12:24.751Z,16.90
2022-10-15T13:14:58.439Z,15.27
2022-10-15T13:17:32.418Z,15.63
2022-10-15T13:20:04.743Z,28.52
2022-10-15T13:22:37.627Z,16.42
2022-10-15T13:25:16.656Z,14.30
2022-10-15T13:27:44.903Z,27.42
2022-10-15T13:30:14.650Z,21.20
2022-10-15T13:32:49.476Z,15.30
2022-10-15T13:35:21.814Z,23.00
2022-10-15T13:37:51.867Z,16.13
2022-10-15T13:40:23.933Z,20.17
2022-10-15T13:43:02.472Z,13.73
2022-10-15T13:45:33.711Z,12.95
2022-10-15T13:48:02.123Z,15.45
2022-10-15T13:50:35.262Z,14.93
2022-10-15T13:53:12.387Z,18.02
2022-10-15T13:55:47.174Z,11.90
2022-10-15T13:58:23.501Z,18.70
2022-10-15T14:01:00.942Z,25.05
2022-10-15T14:03:31.533Z,14.82
2022-10-15T14:06:10.899Z,14.15
2022-10-15T14:08:41.407Z,14.20
2022-10-15T14:11:12.853Z,20.85
2022-10-15T14:13:46.265Z,15.32
2022-10-15T14:16:22.035Z,12.40
2022-10-15T14:18:52.835Z,17.17
2022-10-15T14:21:28.907Z,14.80
2022-10-15T14:24:06.996Z,13.13
2022-10-15T14:26:36.111Z,14.07
2022-10-15T14:29:05.440Z,13.60
2022-10-15T14:31:39.734Z,22.25
2022-10-15T14:34:31.610Z,16.77
2022-10-15T14:37:02.833Z,14.98
2022-10-15T14:39:36.342Z,16.92
2022-10-15T14:42:08.721Z,19.02
2022-10-15T14:44:45.273Z,26.17
2022-10-15T14:47:22.202Z,26.50
2022-10-15T14:49:54.614Z,23.92
2022-10-15T14:52:25.606Z,23.40
2022-10-15T14:55:05.081Z,23.50
2022-10-15T14:57:38.288Z,21.55
2022-10-15T15:00:21.018Z,19.77
2022-10-15T15:02:50.733Z,16.05
2022-10-15T15:05:25.540Z,17.77
2022-10-15T15:07:57.999Z,15.63
2022-10-15T15:10:29.836Z,24.63
2022-10-15T15:15:30.594Z,25.85
2022-10-15T15:18:03.907Z,25.52
2022-10-15T15:20:35.662Z,25.35
2022-10-15T15:25:35.878Z,24.90
2022-10-15T15:28:04.747Z,28.17
2022-10-15T15:30:39.624Z,28.08
2022-10-15T15:33:13.649Z,24.27
2022-10-15T15:35:50.899Z,24.98
2022-10-15T15:38:22.121Z,22.48
2022-10-15T15:40:52.218Z,21.20
2022-10-15T15:43:31.851Z,19.90
2022-10-15T15:46:00.290Z,19.05
2022-10-15T15:48:28.788Z,19.30
2022-10-15T15:51:01.520Z,19.40
2022-10-15T15:53:32.796Z,16.58
2022-10-15T15:56:02.642Z,17.40
2022-10-15T15:58:31.062Z,18.40
2022-10-15T16:00:59.234Z,17.05
2022-10-15T16:03:27.725Z,17.42
2022-10-15T16:05:57.232Z,20.45
2022-10-15T16:08:27.699Z,19.25
2022-10-15T16:10:56.826Z,21.60
2022-10-15T16:13:26.837Z,20.63
2022-10-15T16:15:55.369Z,19.27
2022-10-15T16:18:24.840Z,21.92
2022-10-15T16:20:53.955Z,19.67
2022-10-15T16:23:22.791Z,21.80
2022-10-15T16:25:51.249Z,17.40
2022-10-15T16:28:19.527Z,21.08
2022-10-15T16:30:49.720Z,22.75
2022-10-15T16:33:19.115Z,30.10
2022-10-15T16:35:56.435Z,22.10
2022-10-15T16:38:24.806Z,21.02
2022-10-15T16:40:55.500Z,22.90
2022-10-15T16:43:23.584Z,20.92
2022-10-15T16:46:06.007Z,21.20
2022-10-15T16:48:37.691Z,22.08
2022-10-15T16:51:10.438Z,30.10
2022-10-15T16:53:43.012Z,23.30
2022-10-15T16:56:14.539Z,25.55
2022-10-15T16:58:44.131Z,26.55
2022-10-15T17:01:19.847Z,22.80
2022-10-15T17:03:51.819Z,26.00
2022-10-15T17:06:26.798Z,31.30
2022-10-15T17:08:57.666Z,26.23
2022-10-15T17:11:33.547Z,26.05
2022-10-15T17:14:04.894Z,25.20
2022-10-15T17:16:41.412Z,24.98
2022-10-15T17:19:18.268Z,27.40
2022-10-15T17:21:48.620Z,32.92
2022-10-15T17:24:20.715Z,35.22
2022-10-15T17:26:52.586Z,27.90
2022-10-15T17:29:27.742Z,30.85
2022-10-15T17:32:00.738Z,35.25
2022-10-15T17:34:28.957Z,30.50
2022-10-15T17:37:03.295Z,26.25
2022-10-15T17:39:32.292Z,25.05
2022-10-15T17:42:02.507Z,27.65
2022-10-15T17:44:39.405Z,24.42
2022-10-15T17:47:12.428Z,25.55
2022-10-15T17:49:42.754Z,24.98
2022-10-15T17:52:12.871Z,25.77
2022-10-15T17:54:47.434Z,24.30
2022-10-15T17:57:16.835Z,23.95
2022-10-15T17:59:51.348Z,20.02
2022-10-15T18:02:22.673Z,22.90
2022-10-15T18:04:53.507Z,22.40
2022-10-15T18:07:23.660Z,18.25
2022-10-15T18:09:58.090Z,19.50
2022-10-15T18:12:29.104Z,21.20
2022-10-15T18:14:58.762Z,20.20
2022-10-15T18:17:34.539Z,23.15
2022-10-15T18:20:05.174Z,20.85
2022-10-15T18:22:36.673Z,22.45
2022-10-15T18:25:06.790Z,21.55
2022-10-15T18:27:40.565Z,24.10
2022-10-15T18:30:11.923Z,26.83
2022-10-15T18:32:41.442Z,27.13
2022-10-15T18:35:11.376Z,22.88
2022-10-15T18:37:41.657Z,20.55
2022-10-15T18:40:14.085Z,23.38
2022-10-15T18:42:47.807Z,21.70
2022-10-15T18:45:20.715Z,22.60
2022-10-15T18:47:52.417Z,24.10
2022-10-15T18:50:25.223Z,27.63
2022-10-15T18:52:56.367Z,27.83
2022-10-15T18:55:29.372Z,28.08
2022-10-15T18:58:02.924Z,25.92
2022-10-15T19:00:36.708Z,27.42
2022-10-15T19:05:40.580Z,24.80
2022-10-15T19:08:09.403Z,23.05
2022-10-15T19:10:41.744Z,25.08
2022-10-15T19:13:11.013Z,22.05
2022-10-15T19:15:40.023Z,21.13
2022-10-15T19:18:11.602Z,20.63
2022-10-15T19:20:43.034Z,19.73
2022-10-15T19:23:15.651Z,20.58
2022-10-15T19:25:44.564Z,22.70
2022-10-15T19:28:13.805Z,23.15
2022-10-15T19:30:43.473Z,24.30
2022-10-15T19:33:12.970Z,30.65
2022-10-15T19:35:42.245Z,24.90
2022-10-15T19:38:11.125Z,23.15
2022-10-15T19:40:45.884Z,20.83
2022-10-15T19:43:19.435Z,22.63
2022-10-15T19:45:48.901Z,20.48
2022-10-15T19:48:23.329Z,19.50
2022-10-15T19:50:56.799Z,23.95
2022-10-15T19:53:26.005Z,23.75
2022-10-15T19:55:58.594Z,27.83
2022-10-15T19:58:27.388Z,23.33
2022-10-15T20:00:58.542Z,24.38
2022-10-15T20:03:31.847Z,30.30
2022-10-15T20:06:05.199Z,26.70
2022-10-15T20:08:34.412Z,33.80
2022-10-15T20:11:05.784Z,28.02
2022-10-15T20:13:34.692Z,28.10
2022-10-15T20:16:07.544Z,30.10
2022-10-15T20:18:41.241Z,28.42
2022-10-15T20:21:16.955Z,28.50
2022-10-15T20:23:50.354Z,28.02
2022-10-15T20:26:20.047Z,25.13
2022-10-15T20:28:50.305Z,21.58
2022-10-15T20:31:28.188Z,22.58
2022-10-15T20:34:01.189Z,26.58
2022-10-15T20:36:30.719Z,22.40
2022-10-15T20:39:01.782Z,24.95
2022-10-15T20:41:32.527Z,25.23
2022-10-15T20:44:05.377Z,25.20
2022-10-15T20:46:42.244Z,22.13
2022-10-15T20:49:16.888Z,26.95
2022-10-15T20:51:48.859Z,20.42
2022-10-15T20:54:19.074Z,30.08
2022-10-15T20:56:48.790Z,21.65
2022-10-15T20:59:17.666Z,20.63
2022-10-15T21:01:47.596Z,23.35
2022-10-15T21:04:19.436Z,23.02
2022-10-15T21:09:15.852Z,22.90
2022-10-15T21:11:50.020Z,23.45
2022-10-15T21:14:23.164Z,22.98
2022-10-15T21:16:55.880Z,29.58
2022-10-15T21:19:25.693Z,22.60
2022-10-15T21:21:54.107Z,28.15
2022-10-15T21:24:27.922Z,27.55
2022-10-15T21:27:01.917Z,26.70
2022-10-15T21:29:30.614Z,25.23
2022-10-15T21:31:59.597Z,22.80
2022-10-15T21:34:29.062Z,25.88
2022-10-15T21:36:59.487Z,24.63
2022-10-15T21:39:30.071Z,24.85
2022-10-15T21:41:58.343Z,24.67
2022-10-15T21:44:29.032Z,24.38
2022-10-15T21:46:59.141Z,22.97
2022-10-15T21:49:30.118Z,22.85
2022-10-15T21:51:59.765Z,27.13
2022-10-15T21:54:29.443Z,24.70
2022-10-15T21:56:57.869Z,22.67
2022-10-15T21:59:26.185Z,26.55
2022-10-15T22:01:55.269Z,19.58
2022-10-15T22:04:25.483Z,21.77
2022-10-15T22:06:57.669Z,21.95
2022-10-15T22:09:26.195Z,20.73
2022-10-15T22:11:54.731Z,22.73
2022-10-15T22:14:22.940Z,25.45
2022-10-15T22:16:51.608Z,23.02
2022-10-15T22:19:27.485Z,21.63
2022-10-15T22:21:58.730Z,19.52
2022-10-15T22:24:27.220Z,18.40
2022-10-15T22:26:57.728Z,19.65
2022-10-15T22:29:32.976Z,20.52
2022-10-15T22:32:06.392Z,17.73
2022-10-15T22:34:34.929Z,22.80
2022-10-15T22:37:04.832Z,17.35
2022-10-15T22:39:33.493Z,19.40
2022-10-15T22:42:03.914Z,17.98
2022-10-15T22:44:32.333Z,21.25
2022-10-15T22:47:04.775Z,20.23
2022-10-15T22:49:36.094Z,22.88
2022-10-15T22:52:06.104Z,21.05
2022-10-15T22:54:36.818Z,19.48
2022-10-15T22:57:07.065Z,21.05
2022-10-15T22:59:37.835Z,23.60
2022-10-15T23:02:08.437Z,20.23
2022-10-15T23:04:38.531Z,19.25
2022-10-15T23:07:08.447Z,20.90
2022-10-15T23:09:41.865Z,18.73
2022-10-15T23:12:10.341Z,21.42
2022-10-15T23:14:40.291Z,21.15
2022-10-15T23:17:09.836Z,18.33
2022-10-15T23:19:38.181Z,23.70
2022-10-15T23:22:10.691Z,19.45
2022-10-15T23:24:39.083Z,20.83
2022-10-15T23:27:07.222Z,23.55
2022-10-15T23:29:35.378Z,22.00
2022-10-15T23:32:04.016Z,19.40
2022-10-15T23:34:32.387Z,19.60
2022-10-15T23:37:00.604Z,21.77
2022-10-15T23:39:32.886Z,18.98
2022-10-15T23:42:01.435Z,19.05
2022-10-15T23:44:29.608Z,21.30
2022-10-15T23:46:58.285Z,19.38
2022-10-15T23:49:27.876Z,29.73
2022-10-15T23:51:58.338Z,21.42
2022-10-15T23:54:26.997Z,20.23
2022-10-15T23:56:57.778Z,20.25
2022-10-15T23:59:25.907Z,24.05
